Historyczne dane pomiarowe

Dodano dane terminowe – wersja testowa.

Dane z okresu 1951-2019

Wersja bazy: 1.34 [2019-03-16, lista zmian], aktualizacja planowana na 2019-04-15

Dane meteo z obszaru Polski uzyskane na podstawie danych udostępnionych przez Instytut Meteorologii i Gospodarki Wodnej – Państwowy Instytut Badawczy.

 

Wybierz Datę:    

       

TemperaturaWilgotnośćZachmurzenieWiatrCiśnienieWidzialnośćZjawiska
 Data    tng td wb rh cc ccl cl cm ch dir g1 g2 mslp ppp      
1994-07-02 00:00:00 9.3--- 8.2 8.793wxwx1wx--1022.9 981.3 0.0---wx
1994-07-02 01:00:00 9.1--- 8.9 9.099wxwx0wx--1022.9 981.3----wx
1994-07-02 02:00:00 7.9--- 7.9 7.9100wxwx0wx--1023.0 981.2----wxw1
1994-07-02 03:00:00 7.7--- 7.7 7.7100wxwx0wx--1022.9 981.1----wx
1994-07-02 04:00:00 7.3--- 7.3 7.3100wxwx0wx--1023.0 981.1----wxw1
1994-07-02 05:00:00 9.1--- 9.1 9.1100wxwx0wx--1022.6 981.0----wxw1
1994-07-02 06:00:00 11.8--- 11.3 11.597wxwx0wx--1022.1 980.9 0.1---wx
1994-07-02 07:00:00 17.0--- 13.0 14.677wxwx0wx--1020.9 980.5----wx
1994-07-02 08:00:00 20.4--- 11.2 15.056wxwx0wx--1020.1 980.2----wx
1994-07-02 09:00:00 21.5--- 9.0 14.445wxwxwx2wx--1020.0 980.2----wx
1994-07-02 10:00:00 22.4--- 10.2 15.346wxwxwxwx2wx--1019.6 980.0----wx
1994-07-02 11:00:00 23.4--- 10.1 15.643wxwxwx0wx--1019.3 979.8----wx
1994-07-02 12:00:00 23.9--- 7.5 14.735wxwxwx4wx--1018.7 979.3 0.0---wx
1994-07-02 13:00:00 24.6--- 8.6 15.436wxwxwx2wx--1018.2 978.9----wx
1994-07-02 14:00:00 25.4--- 10.2 16.438wxwxwx0wx--1017.6 978.4----wx
1994-07-02 15:00:00 24.8--- 7.9 15.234wxwxwx0wx--1017.7 978.4----wx
1994-07-02 16:00:00 24.6--- 8.6 15.436wxwxwx2wx--1017.4 978.1----wx
1994-07-02 17:00:00 23.8--- 8.8 15.238wxwxwx1wx--1017.4 978.0----wx
1994-07-02 18:00:00 22.4--- 10.2 15.346wxwxwx1wx--1017.5 977.9 0.0---wx
1994-07-02 19:00:00 20.4--- 11.2 15.056wxwxwx1wx--1017.9 978.1----wx
1994-07-02 20:00:00 16.4--- 10.8 13.270wxwxwx0wx--1019.0 978.6----wx
1994-07-02 21:00:00 14.9--- 11.2 12.879wxwx0wx--1019.6 978.9----wx
1994-07-02 22:00:00 13.0--- 9.9 11.382wxwx0wx--1019.9 979.0----wx
1994-07-02 23:00:00 11.6--- 9.4 10.486wxwx0wx--1020.2 979.1----wx

 

Źródłem pochodzenia danych jest Instytut Meteorologii i Gospodarki Wodnej – Państwowy Instytut Badawczy. Dane Instytutu Meteorologii i Gospodarki Wodnej – Państwowego Instytutu Badawczego zostały przetworzone.

Dane źródłowe można odnaleźć na stronie https://dane.imgw.pl